Weather at Los Angeles International Airport

Public forecast

Using degrees Fahrenheit for public forecast. Weather courtesy of forecast.io.

Current aviation weather report (METAR) for Los Angeles International Airport

Retrieved 2021/07/28 23:53 UTC (13 minutes ago):

KLAX 282353Z COR 26013KT 10SM FEW010 FEW050 SCT100 SCT150 21/16 A2996 RMK AO2 SLP144 T02110161 10222 20200 56019

Aviation forecast (TAF) for Los Angeles International Airport

Retrieved 2021-07-29 00:48 UTC (0 seconds ago):

TAF KLAX 282347Z 2900/3006 26014KT P6SM FEW010 FM290300 27008KT P6SM SCT007 FM290500 26006KT P6SM OVC007 FM291600 24007KT P6SM SCT010 FM292100 26012G15KT P6SM FEW010 FM300500 26010KT P6SM SKC